DAL1101 KORF-KATL
Flight info
| Callsign | DAL1101 |
|---|---|
| Flight time | N/A |
| Altitude | 34000 |
| Route | NUTIY1 EYOBI CEELY Q172 YUTEE SKWKR JJEDI4 |
| Aircraft | B739/M-SDE2E3FGHIRWXY/LB1 |
Departure
| Time | 2026-05-08 20:51 |
|---|---|
| Airport | Norfolk International Airport (KORF) |
Arrival
| Time | N/A |
|---|---|
| Airport | Hartsfield Jackson Atlanta International Airport (KATL) |
| Time | Latitude | Longitude | Altitude | Speed | Heading |
|---|---|---|---|---|---|
| 2026-05-08 20:26 | 36.89716 | -76.20184 | 2 ft | 0 kts | 216° |
| 2026-05-08 20:42 | 36.89736 | -76.20167 | 2 ft | 4 kts | 205° |
| 2026-05-08 20:42 | 36.89761 | -76.20157 | 4 ft | 4 kts | 184° |
| 2026-05-08 20:43 | 36.89787 | -76.20161 | 3 ft | 4 kts | 150° |
| 2026-05-08 20:43 | 36.89802 | -76.20179 | 4 ft | 1 kts | 110° |
| 2026-05-08 20:46 | 36.89801 | -76.20177 | 3 ft | 1 kts | 110° |
| 2026-05-08 20:46 | 36.89791 | -76.20146 | 3 ft | 7 kts | 113° |
| 2026-05-08 20:46 | 36.89765 | -76.20071 | 2 ft | 11 kts | 114° |
| 2026-05-08 20:46 | 36.89728 | -76.19985 | 2 ft | 11 kts | 141° |
| 2026-05-08 20:47 | 36.89665 | -76.20005 | 3 ft | 11 kts | 217° |
| 2026-05-08 20:47 | 36.89588 | -76.20081 | 3 ft | 17 kts | 218° |
| 2026-05-08 20:47 | 36.89486 | -76.20178 | 3 ft | 20 kts | 217° |
| 2026-05-08 20:47 | 36.89371 | -76.20288 | 3 ft | 21 kts | 218° |
| 2026-05-08 20:48 | 36.89261 | -76.20394 | 4 ft | 19 kts | 217° |
| 2026-05-08 20:48 | 36.89168 | -76.20478 | 5 ft | 16 kts | 213° |
| 2026-05-08 20:48 | 36.89066 | -76.20556 | 3 ft | 18 kts | 213° |
| 2026-05-08 20:48 | 36.88957 | -76.20645 | 3 ft | 19 kts | 217° |
| 2026-05-08 20:49 | 36.88855 | -76.20743 | 2 ft | 18 kts | 217° |
| 2026-05-08 20:49 | 36.88762 | -76.20832 | 3 ft | 16 kts | 218° |
| 2026-05-08 20:49 | 36.88678 | -76.20902 | 2 ft | 10 kts | 192° |
| 2026-05-08 20:49 | 36.88625 | -76.20867 | 1 ft | 9 kts | 128° |
| 2026-05-08 20:50 | 36.88621 | -76.20799 | 2 ft | 8 kts | 52° |
| 2026-05-08 20:50 | 36.88672 | -76.20749 | 2 ft | 20 kts | 38° |
| 2026-05-08 20:50 | 36.88938 | -76.20490 | 6 ft | 81 kts | 37° |
| 2026-05-08 20:50 | 36.89544 | -76.19904 | 8 ft | 137 kts | 38° |
| 2026-05-08 20:51 | 36.90367 | -76.19066 | 294 ft | 151 kts | 45° |
| 2026-05-08 20:51 | 36.91255 | -76.18268 | 730 ft | 170 kts | 34° |
| 2026-05-08 20:51 | 36.92291 | -76.17421 | 1120 ft | 185 kts | 32° |
| 2026-05-08 20:51 | 36.93561 | -76.16840 | 1375 ft | 206 kts | 3° |
| 2026-05-08 20:52 | 36.94957 | -76.17263 | 1706 ft | 215 kts | 325° |
| 2026-05-08 20:52 | 36.95961 | -76.18665 | 2012 ft | 224 kts | 293° |
| 2026-05-08 20:52 | 36.96298 | -76.20608 | 2266 ft | 241 kts | 268° |
| 2026-05-08 20:52 | 36.96139 | -76.22777 | 2771 ft | 250 kts | 260° |
| 2026-05-08 20:53 | 36.95894 | -76.24933 | 3561 ft | 251 kts | 261° |
| 2026-05-08 20:53 | 36.95660 | -76.27095 | 3938 ft | 250 kts | 262° |
| 2026-05-08 20:53 | 36.95435 | -76.29271 | 4015 ft | 257 kts | 262° |
| 2026-05-08 20:53 | 36.95203 | -76.31491 | 4358 ft | 258 kts | 262° |
| 2026-05-08 20:54 | 36.94980 | -76.33697 | 5249 ft | 253 kts | 262° |
| 2026-05-08 20:54 | 36.94761 | -76.35870 | 6071 ft | 252 kts | 263° |
| 2026-05-08 20:54 | 36.94609 | -76.38059 | 6773 ft | 254 kts | 269° |
| 2026-05-08 20:54 | 36.94594 | -76.40274 | 7443 ft | 256 kts | 270° |
| 2026-05-08 20:55 | 36.94601 | -76.42511 | 8126 ft | 259 kts | 271° |
| 2026-05-08 20:55 | 36.94603 | -76.44179 | 8652 ft | 260 kts | 271° |
| 2026-05-08 20:55 | 36.94601 | -76.45583 | 9097 ft | 262 kts | 271° |
| 2026-05-08 20:56 | 36.94591 | -76.47865 | 9773 ft | 264 kts | 271° |
| 2026-05-08 20:56 | 36.94576 | -76.50173 | 10318 ft | 271 kts | 271° |
| 2026-05-08 20:56 | 36.94557 | -76.52618 | 10468 ft | 292 kts | 269° |
| 2026-05-08 20:56 | 36.94382 | -76.54398 | 10562 ft | 307 kts | 259° |
| 2026-05-08 20:57 | 36.93685 | -76.56834 | 10702 ft | 328 kts | 245° |
| 2026-05-08 20:57 | 36.92500 | -76.59363 | 10846 ft | 346 kts | 242° |
| 2026-05-08 20:57 | 36.91184 | -76.61973 | 10971 ft | 363 kts | 241° |
| 2026-05-08 20:58 | 36.89806 | -76.64668 | 11247 ft | 372 kts | 240° |
| 2026-05-08 20:58 | 36.88878 | -76.66484 | 11543 ft | 374 kts | 241° |
| 2026-05-08 20:58 | 36.87655 | -76.68888 | 12025 ft | 375 kts | 241° |
| 2026-05-08 20:59 | 36.86261 | -76.71645 | 12606 ft | 376 kts | 241° |
| 2026-05-08 20:59 | 36.84869 | -76.74410 | 13181 ft | 376 kts | 242° |
| 2026-05-08 20:59 | 36.83478 | -76.77184 | 13744 ft | 378 kts | 242° |
| 2026-05-08 20:59 | 36.82607 | -76.78924 | 14051 ft | 379 kts | 242° |
| 2026-05-08 21:00 | 36.82054 | -76.80028 | 14233 ft | 380 kts | 242° |
| 2026-05-08 21:00 | 36.80650 | -76.82832 | 14728 ft | 382 kts | 242° |
| 2026-05-08 21:00 | 36.79237 | -76.85651 | 15253 ft | 383 kts | 242° |
| 2026-05-08 21:01 | 36.77821 | -76.88474 | 15764 ft | 385 kts | 242° |
| 2026-05-08 21:01 | 36.76519 | -76.91068 | 16215 ft | 387 kts | 242° |
| 2026-05-08 21:01 | 36.75509 | -76.93079 | 16553 ft | 388 kts | 242° |
| 2026-05-08 21:02 | 36.74071 | -76.95939 | 17029 ft | 390 kts | 242° |
| 2026-05-08 21:02 | 36.72628 | -76.98806 | 17527 ft | 392 kts | 242° |
| 2026-05-08 21:02 | 36.71178 | -77.01688 | 18011 ft | 393 kts | 242° |
| 2026-05-08 21:02 | 36.69937 | -77.04262 | 18421 ft | 395 kts | 244° |
| 2026-05-08 21:03 | 36.68985 | -77.06310 | 18705 ft | 395 kts | 244° |
| 2026-05-08 21:03 | 36.67621 | -77.09287 | 19127 ft | 396 kts | 245° |
| 2026-05-08 21:03 | 36.66259 | -77.12266 | 19544 ft | 397 kts | 245° |
| 2026-05-08 21:04 | 36.64904 | -77.15215 | 19933 ft | 398 kts | 245° |
| 2026-05-08 21:04 | 36.63504 | -77.18248 | 20318 ft | 400 kts | 245° |
| 2026-05-08 21:04 | 36.62129 | -77.21214 | 20702 ft | 401 kts | 245° |
| 2026-05-08 21:04 | 36.60713 | -77.24260 | 21097 ft | 402 kts | 244° |
| 2026-05-08 21:05 | 36.59327 | -77.27233 | 21457 ft | 403 kts | 244° |
| 2026-05-08 21:05 | 36.57915 | -77.30259 | 21806 ft | 405 kts | 245° |
| 2026-05-08 21:05 | 36.56498 | -77.33293 | 22157 ft | 406 kts | 245° |
| 2026-05-08 21:05 | 36.55077 | -77.36333 | 22477 ft | 407 kts | 245° |
| 2026-05-08 21:06 | 36.53652 | -77.39379 | 22816 ft | 408 kts | 245° |
| 2026-05-08 21:06 | 36.52222 | -77.42436 | 23119 ft | 410 kts | 245° |
| 2026-05-08 21:06 | 36.50785 | -77.45504 | 23398 ft | 412 kts | 245° |
| 2026-05-08 21:06 | 36.49341 | -77.48582 | 23681 ft | 413 kts | 245° |
| 2026-05-08 21:07 | 36.47895 | -77.51661 | 23946 ft | 413 kts | 245° |
| 2026-05-08 21:07 | 36.46445 | -77.54744 | 24232 ft | 412 kts | 245° |
| 2026-05-08 21:07 | 36.44999 | -77.57817 | 24519 ft | 412 kts | 245° |
| 2026-05-08 21:07 | 36.43531 | -77.60934 | 24789 ft | 412 kts | 245° |
| 2026-05-08 21:08 | 36.42102 | -77.63967 | 25049 ft | 412 kts | 245° |
| 2026-05-08 21:08 | 36.40657 | -77.67032 | 25411 ft | 410 kts | 246° |
| 2026-05-08 21:08 | 36.39225 | -77.70062 | 25900 ft | 404 kts | 246° |
| 2026-05-08 21:08 | 36.37804 | -77.73070 | 26005 ft | 403 kts | 246° |
| 2026-05-08 21:09 | 36.36390 | -77.76064 | 26035 ft | 401 kts | 246° |
| 2026-05-08 21:09 | 36.34983 | -77.79040 | 26028 ft | 399 kts | 246° |
| 2026-05-08 21:09 | 36.33578 | -77.82010 | 26050 ft | 399 kts | 246° |
| 2026-05-08 21:09 | 36.32167 | -77.84978 | 26063 ft | 401 kts | 245° |
| 2026-05-08 21:10 | 36.30481 | -77.87780 | 26065 ft | 411 kts | 236° |
| 2026-05-08 21:10 | 36.28432 | -77.90290 | 26065 ft | 417 kts | 231° |
| 2026-05-08 21:10 | 36.26172 | -77.92575 | 26050 ft | 422 kts | 225° |
| 2026-05-08 21:10 | 36.23626 | -77.94462 | 26066 ft | 430 kts | 218° |
| 2026-05-08 21:11 | 36.20959 | -77.96156 | 26063 ft | 432 kts | 217° |
| 2026-05-08 21:11 | 36.18283 | -77.97830 | 26063 ft | 432 kts | 217° |
| 2026-05-08 21:11 | 36.15592 | -77.99511 | 26067 ft | 432 kts | 217° |
| 2026-05-08 21:11 | 36.12911 | -78.01191 | 26021 ft | 432 kts | 217° |
| 2026-05-08 21:12 | 36.10233 | -78.02875 | 26051 ft | 432 kts | 217° |
| 2026-05-08 21:12 | 36.07558 | -78.04564 | 26049 ft | 432 kts | 217° |
| 2026-05-08 21:12 | 36.04890 | -78.06252 | 26063 ft | 431 kts | 218° |
| 2026-05-08 21:12 | 36.02217 | -78.07947 | 26060 ft | 432 kts | 218° |
| 2026-05-08 21:13 | 35.99544 | -78.09640 | 26063 ft | 432 kts | 217° |
| 2026-05-08 21:13 | 35.96868 | -78.11335 | 26063 ft | 432 kts | 217° |
| 2026-05-08 21:13 | 35.94195 | -78.13026 | 26061 ft | 432 kts | 217° |
| 2026-05-08 21:13 | 35.91554 | -78.14696 | 26060 ft | 432 kts | 218° |
| 2026-05-08 21:14 | 35.88877 | -78.16387 | 26052 ft | 432 kts | 218° |
| 2026-05-08 21:14 | 35.86200 | -78.18075 | 26055 ft | 432 kts | 217° |
| 2026-05-08 21:14 | 35.83526 | -78.19762 | 26047 ft | 432 kts | 217° |
| 2026-05-08 21:14 | 35.80853 | -78.21445 | 26051 ft | 432 kts | 217° |
| 2026-05-08 21:15 | 35.78486 | -78.22936 | 26050 ft | 432 kts | 217° |
| 2026-05-08 21:15 | 35.77058 | -78.23835 | 26050 ft | 432 kts | 217° |
| 2026-05-08 21:15 | 35.74382 | -78.25518 | 26043 ft | 432 kts | 217° |
| 2026-05-08 21:15 | 35.71707 | -78.27199 | 26044 ft | 432 kts | 217° |
| 2026-05-08 21:16 | 35.69031 | -78.28879 | 26042 ft | 432 kts | 217° |
| 2026-05-08 21:16 | 35.66357 | -78.30557 | 26003 ft | 432 kts | 218° |
| 2026-05-08 21:16 | 35.63681 | -78.32235 | 26033 ft | 431 kts | 218° |
| 2026-05-08 21:16 | 35.61013 | -78.33907 | 26029 ft | 431 kts | 218° |
| 2026-05-08 21:17 | 35.58340 | -78.35581 | 26036 ft | 431 kts | 218° |
| 2026-05-08 21:17 | 35.55668 | -78.37252 | 26039 ft | 431 kts | 218° |
| 2026-05-08 21:17 | 35.52993 | -78.38925 | 26036 ft | 431 kts | 218° |
| 2026-05-08 21:17 | 35.50324 | -78.40592 | 26037 ft | 431 kts | 218° |
| 2026-05-08 21:18 | 35.47645 | -78.42264 | 26033 ft | 431 kts | 218° |
| 2026-05-08 21:18 | 35.44974 | -78.43930 | 26038 ft | 431 kts | 218° |
| 2026-05-08 21:18 | 35.42297 | -78.45598 | 26039 ft | 431 kts | 217° |
| 2026-05-08 21:18 | 35.39619 | -78.47266 | 26038 ft | 431 kts | 218° |
| 2026-05-08 21:19 | 35.36946 | -78.48930 | 26039 ft | 431 kts | 218° |
| 2026-05-08 21:19 | 35.34267 | -78.50596 | 26049 ft | 431 kts | 218° |
| 2026-05-08 21:19 | 35.31630 | -78.52235 | 26054 ft | 431 kts | 217° |
| 2026-05-08 21:19 | 35.28953 | -78.53897 | 26051 ft | 432 kts | 217° |
| 2026-05-08 21:20 | 35.26275 | -78.55559 | 26053 ft | 432 kts | 217° |
| 2026-05-08 21:20 | 35.23595 | -78.57221 | 26052 ft | 432 kts | 217° |
| 2026-05-08 21:20 | 35.20915 | -78.58881 | 26014 ft | 432 kts | 218° |
| 2026-05-08 21:20 | 35.18237 | -78.60538 | 26045 ft | 431 kts | 218° |
| 2026-05-08 21:21 | 35.15557 | -78.62196 | 26037 ft | 431 kts | 218° |
| 2026-05-08 21:21 | 35.12901 | -78.63838 | 26046 ft | 431 kts | 218° |
| 2026-05-08 21:21 | 35.10224 | -78.65492 | 26042 ft | 431 kts | 218° |
| 2026-05-08 21:21 | 35.07547 | -78.67144 | 26044 ft | 431 kts | 218° |
| 2026-05-08 21:22 | 35.04871 | -78.68796 | 26051 ft | 431 kts | 218° |
| 2026-05-08 21:22 | 35.02324 | -78.70613 | 26027 ft | 419 kts | 226° |
| 2026-05-08 21:22 | 35.00040 | -78.72788 | 26051 ft | 415 kts | 228° |
| 2026-05-08 21:22 | 34.97782 | -78.74982 | 26039 ft | 415 kts | 228° |
| 2026-05-08 21:23 | 34.95523 | -78.77166 | 26028 ft | 415 kts | 228° |
| 2026-05-08 21:23 | 34.93253 | -78.79345 | 26024 ft | 415 kts | 228° |
| 2026-05-08 21:23 | 34.90980 | -78.81514 | 26034 ft | 415 kts | 227° |
| 2026-05-08 21:23 | 34.88704 | -78.83676 | 26037 ft | 415 kts | 227° |
| 2026-05-08 21:24 | 34.86450 | -78.85811 | 26039 ft | 416 kts | 227° |
| 2026-05-08 21:24 | 34.84166 | -78.87970 | 26037 ft | 416 kts | 227° |
| 2026-05-08 21:24 | 34.81847 | -78.90161 | 26039 ft | 417 kts | 227° |
| 2026-05-08 21:24 | 34.79557 | -78.92322 | 26037 ft | 417 kts | 227° |
| 2026-05-08 21:25 | 34.77264 | -78.94483 | 26035 ft | 417 kts | 227° |
| 2026-05-08 21:25 | 34.74970 | -78.96644 | 26038 ft | 417 kts | 227° |
| 2026-05-08 21:25 | 34.72677 | -78.98804 | 26014 ft | 417 kts | 227° |
| 2026-05-08 21:25 | 34.70387 | -79.00958 | 26031 ft | 417 kts | 227° |
| 2026-05-08 21:26 | 34.68096 | -79.03111 | 26030 ft | 417 kts | 227° |
| 2026-05-08 21:26 | 34.65831 | -79.05240 | 26041 ft | 417 kts | 227° |
| 2026-05-08 21:26 | 34.63539 | -79.07392 | 26049 ft | 417 kts | 227° |
| 2026-05-08 21:26 | 34.61242 | -79.09547 | 26039 ft | 417 kts | 227° |
| 2026-05-08 21:27 | 34.58944 | -79.11702 | 26041 ft | 417 kts | 227° |